Time;durP1;ratioP1;P1;durP2;ratioP2;P2;SDS_P1;SDS_P2;PMS_P1;PMS_P2;Temp;Humidity;BMP_temperature;BMP_pressure;BME280_temperature;BME280_humidity;BME280_pressure;Samples;Min_cycle;Max_cycle;Signal;HPM_P1;HPM_P2
2022/08/14 00:01:05;;;;;;;5.27;4.87;;;30.60;47.20;;;;;;4953158;29;20455;-68
2022/08/14 00:03:31;;;;;;;5.53;5.10;;;30.60;47.20;;;;;;4933569;29;20495;-68
2022/08/14 00:06:01;;;;;;;5.10;4.70;;;30.60;47.30;;;;;;4937608;29;20482;-68
2022/08/14 00:08:30;;;;;;;6.20;4.60;;;30.50;47.20;;;;;;4953518;29;20438;-68
2022/08/14 00:10:56;;;;;;;5.57;5.07;;;30.50;47.30;;;;;;4953275;29;20436;-68
2022/08/14 00:13:27;;;;;;;4.83;4.43;;;30.50;47.30;;;;;;4921350;29;20443;-68
2022/08/14 00:15:57;;;;;;;5.33;4.93;;;30.50;47.40;;;;;;4937113;28;20451;-68
2022/08/14 00:18:25;;;;;;;5.10;4.70;;;30.50;47.40;;;;;;4941386;29;20499;-68
2022/08/14 00:20:55;;;;;;;5.57;5.17;;;30.50;47.40;;;;;;4958316;29;20951;-68
2022/08/14 00:23:28;;;;;;;5.00;4.70;;;30.40;47.40;;;;;;4958724;28;20929;-68
2022/08/14 00:25:57;;;;;;;5.17;4.77;;;30.40;47.40;;;;;;4957939;29;20419;-68
2022/08/14 00:28:28;;;;;;;5.17;4.73;;;30.40;47.50;;;;;;4958313;29;20415;-68
2022/08/14 00:30:58;;;;;;;7.70;4.63;;;30.40;47.50;;;;;;4941006;29;20423;-68
2022/08/14 00:33:26;;;;;;;5.37;4.87;;;30.40;47.50;;;;;;4958103;28;20447;-68
2022/08/14 00:35:55;;;;;;;5.50;5.07;;;30.40;47.60;;;;;;4957801;29;20537;-68
2022/08/14 00:38:26;;;;;;;5.70;5.00;;;30.30;47.50;;;;;;4957218;29;20557;-68
2022/08/14 00:40:52;;;;;;;5.93;5.43;;;30.30;47.60;;;;;;4956592;29;20508;-68
2022/08/14 00:43:20;;;;;;;5.30;4.90;;;30.30;47.60;;;;;;4957144;28;20478;-68
2022/08/14 00:45:46;;;;;;;5.30;4.90;;;30.30;47.70;;;;;;4956535;29;20419;-68
2022/08/14 00:48:17;;;;;;;5.73;5.23;;;30.30;47.70;;;;;;4958095;29;20920;-68
2022/08/14 00:50:44;;;;;;;5.90;5.40;;;30.30;47.70;;;;;;4941770;29;20419;-68
2022/08/14 00:53:10;;;;;;;5.33;4.93;;;30.30;47.70;;;;;;4957617;28;20446;-68
2022/08/14 00:55:40;;;;;;;5.57;5.07;;;30.20;47.70;;;;;;4940440;29;20599;-68
2022/08/14 01:00:51;;;;;;;5.83;5.33;;;30.20;47.80;;;;;;4956518;29;20481;-68
2022/08/14 01:03:18;;;;;;;5.77;5.27;;;30.20;47.90;;;;;;4956500;28;20449;-68
2022/08/14 01:05:48;;;;;;;5.73;5.33;;;30.20;47.90;;;;;;4957664;29;20407;-68
2022/08/14 01:08:25;;;;;;;5.40;4.90;;;30.10;47.90;;;;;;4956048;29;20418;-68
2022/08/14 01:10:55;;;;;;;6.03;5.57;;;30.10;48.00;;;;;;4940385;29;20525;-68
2022/08/14 01:13:28;;;;;;;5.40;5.00;;;30.10;48.00;;;;;;4956402;28;20529;-68
2022/08/14 01:16:01;;;;;;;5.80;5.40;;;30.10;48.00;;;;;;4956204;29;20423;-68
2022/08/14 01:21:30;;;;;;;5.63;5.13;;;30.00;48.10;;;;;;4955932;28;20537;-68
2022/08/14 01:23:59;;;;;;;5.50;5.00;;;30.00;48.10;;;;;;4944513;29;20498;-68
2022/08/14 01:26:27;;;;;;;5.43;5.03;;;30.00;48.20;;;;;;4957204;29;20437;-68
2022/08/14 01:28:58;;;;;;;5.90;5.40;;;29.90;48.20;;;;;;4954867;28;20450;-68
2022/08/14 01:31:30;;;;;;;4.70;4.40;;;29.90;48.20;;;;;;4940113;28;20450;-68
2022/08/14 01:34:02;;;;;;;6.07;5.57;;;29.90;48.20;;;;;;4956786;29;20835;-68
2022/08/14 01:36:35;;;;;;;6.73;5.70;;;29.90;48.30;;;;;;4956336;29;20443;-68
2022/08/14 01:39:07;;;;;;;5.13;4.73;;;29.90;48.30;;;;;;4939612;29;20434;-68
2022/08/14 01:41:35;;;;;;;6.00;5.50;;;29.90;48.40;;;;;;4955875;28;20481;-68
2022/08/14 01:44:11;;;;;;;5.43;4.97;;;29.80;48.30;;;;;;4956080;29;20435;-68
2022/08/14 01:46:40;;;;;;;5.53;5.13;;;29.80;48.40;;;;;;4924172;29;20425;-68
2022/08/14 01:49:14;;;;;;;5.60;5.10;;;29.80;48.40;;;;;;4956013;29;20954;-68
2022/08/14 01:51:43;;;;;;;5.60;5.10;;;29.80;48.40;;;;;;4923829;29;20462;-68
2022/08/14 01:54:19;;;;;;;5.43;5.03;;;29.80;48.50;;;;;;4955781;29;20458;-68
2022/08/14 01:56:47;;;;;;;5.70;5.20;;;29.70;48.40;;;;;;4955669;29;20415;-68
2022/08/14 01:59:31;;;;;;;5.50;5.10;;;29.70;48.50;;;;;;4955698;29;20403;-68
2022/08/14 02:02:11;;;;;;;5.30;4.90;;;29.70;48.60;;;;;;4955440;28;20451;-68
2022/08/14 02:04:42;;;;;;;5.67;5.27;;;29.70;48.60;;;;;;4955285;29;20407;-68
2022/08/14 02:07:11;;;;;;;5.57;5.17;;;29.70;48.60;;;;;;4939698;29;20502;-68
2022/08/14 02:09:42;;;;;;;5.33;4.90;;;29.60;48.60;;;;;;4935927;29;21012;-68
2022/08/14 02:12:08;;;;;;;5.70;5.20;;;29.60;48.70;;;;;;4920668;29;20794;-68
2022/08/14 02:14:36;;;;;;;6.10;5.60;;;29.60;48.70;;;;;;4920622;29;20428;-68
2022/08/14 02:17:03;;;;;;;5.90;5.40;;;29.60;48.80;;;;;;4952023;29;20456;-68
2022/08/14 02:19:34;;;;;;;5.93;5.53;;;29.60;48.80;;;;;;4936064;29;20902;-68
2022/08/14 02:22:03;;;;;;;4.87;4.37;;;29.50;48.80;;;;;;4962268;28;20478;-68
2022/08/14 02:24:31;;;;;;;5.50;5.10;;;29.50;48.80;;;;;;4956262;29;20889;-68
2022/08/14 02:26:59;;;;;;;5.70;5.30;;;29.50;48.80;;;;;;4954759;29;20419;-68
2022/08/14 02:29:29;;;;;;;6.43;5.93;;;29.50;48.90;;;;;;4954862;29;20562;-68
2022/08/14 02:31:57;;;;;;;5.90;5.50;;;29.50;48.90;;;;;;4954508;28;20446;-68
2022/08/14 02:34:28;;;;;;;5.63;5.13;;;29.40;48.90;;;;;;4942278;29;20455;-68
2022/08/14 02:36:58;;;;;;;5.97;5.47;;;29.50;49.00;;;;;;4938671;29;20471;-68
2022/08/14 02:39:26;;;;;;;6.23;5.73;;;29.40;49.00;;;;;;4938614;29;20955;-68
2022/08/14 02:41:55;;;;;;;5.60;5.20;;;29.40;49.00;;;;;;4953999;28;20475;-68
2022/08/14 02:44:23;;;;;;;6.73;6.23;;;29.40;49.10;;;;;;4954580;29;20966;-68
2022/08/14 02:46:51;;;;;;;5.50;5.10;;;29.30;49.10;;;;;;4954954;29;20423;-68
2022/08/14 02:49:26;;;;;;;5.73;5.20;;;29.30;49.10;;;;;;4956073;29;20942;-71
2022/08/14 02:51:58;;;;;;;5.93;5.43;;;29.30;49.20;;;;;;4954321;28;20579;-68
2022/08/14 02:54:27;;;;;;;5.80;5.30;;;29.30;49.20;;;;;;4939343;29;20519;-67
2022/08/14 02:57:00;;;;;;;6.00;5.60;;;29.30;49.30;;;;;;4954199;29;20473;-68
2022/08/14 02:59:30;;;;;;;6.60;6.00;;;29.20;49.30;;;;;;4954265;29;20831;-68
2022/08/14 03:01:57;;;;;;;5.90;5.50;;;29.20;49.30;;;;;;4937989;28;20493;-67
2022/08/14 03:04:27;;;;;;;5.53;5.13;;;29.20;49.40;;;;;;4955289;28;20443;-68
2022/08/14 03:06:53;;;;;;;6.13;5.63;;;29.20;49.40;;;;;;4955453;28;20893;-68
2022/08/14 03:09:24;;;;;;;6.07;5.60;;;29.10;49.40;;;;;;4955391;28;20423;-68
2022/08/14 03:11:54;;;;;;;6.00;5.50;;;29.10;49.40;;;;;;4970147;28;20541;-68
2022/08/14 03:14:24;;;;;;;6.10;5.70;;;29.10;49.50;;;;;;4954374;29;20506;-68
2022/08/14 03:16:50;;;;;;;6.43;5.83;;;29.10;49.50;;;;;;4955138;29;20909;-68
2022/08/14 03:19:19;;;;;;;5.77;5.37;;;29.10;49.60;;;;;;4954012;29;20494;-68
2022/08/14 03:21:49;;;;;;;6.20;5.60;;;29.10;49.60;;;;;;4953757;28;21007;-68
2022/08/14 03:24:21;;;;;;;6.40;5.90;;;29.10;49.70;;;;;;4938044;29;20421;-68
2022/08/14 03:26:48;;;;;;;6.30;5.80;;;29.00;49.60;;;;;;4953843;29;20412;-68
2022/08/14 03:29:19;;;;;;;6.00;5.60;;;29.00;49.70;;;;;;4953151;29;20418;-68
2022/08/14 03:31:50;;;;;;;5.77;5.23;;;29.00;49.70;;;;;;4953623;28;21245;-67
2022/08/14 03:34:17;;;;;;;5.60;5.20;;;29.00;49.70;;;;;;4954756;29;20936;-68
2022/08/14 03:36:43;;;;;;;6.10;5.60;;;28.90;49.70;;;;;;4953776;29;20462;-68
2022/08/14 03:39:12;;;;;;;6.10;5.50;;;28.90;49.70;;;;;;4953862;29;20422;-67
2022/08/14 03:42:01;;;;;;;6.03;5.43;;;28.90;49.80;;;;;;4883345;29;21055;-68
2022/08/14 03:44:32;;;;;;;6.33;5.80;;;28.90;49.80;;;;;;4946779;29;20763;-68
2022/08/14 03:46:59;;;;;;;6.60;5.93;;;28.90;49.90;;;;;;4953342;29;20439;-67
2022/08/14 03:49:27;;;;;;;5.43;5.07;;;28.90;49.90;;;;;;4953228;29;20442;-68
2022/08/14 03:51:53;;;;;;;6.40;5.90;;;28.80;49.90;;;;;;4954729;28;20435;-68
2022/08/14 03:54:19;;;;;;;6.87;6.27;;;28.80;49.90;;;;;;4936530;29;20403;-68
2022/08/14 03:56:45;;;;;;;5.83;5.43;;;28.80;50.00;;;;;;4934263;29;20396;-67
2022/08/14 03:59:16;;;;;;;7.30;6.70;;;28.80;50.00;;;;;;4919847;29;20408;-67
2022/08/14 04:01:43;;;;;;;6.97;6.37;;;28.80;50.00;;;;;;4945931;28;20463;-68
2022/08/14 04:04:12;;;;;;;7.00;6.20;;;28.80;50.00;;;;;;4935217;29;20444;-68
2022/08/14 04:06:40;;;;;;;5.57;5.17;;;28.70;50.00;;;;;;4950910;29;20496;-68
2022/08/14 04:09:07;;;;;;;6.40;5.90;;;28.70;50.10;;;;;;4935776;29;20407;-67
2022/08/14 04:11:34;;;;;;;5.77;5.37;;;28.70;50.10;;;;;;4936192;29;20435;-68
2022/08/14 04:14:04;;;;;;;6.00;5.60;;;28.70;50.10;;;;;;4935988;29;20743;-68
2022/08/14 04:16:30;;;;;;;6.17;5.77;;;28.70;50.10;;;;;;4936025;29;20408;-68
2022/08/14 04:19:03;;;;;;;7.20;6.60;;;28.60;50.10;;;;;;4935930;29;20480;-68
2022/08/14 04:21:34;;;;;;;5.87;5.47;;;28.60;50.20;;;;;;4935611;29;20477;-67
2022/08/14 04:24:00;;;;;;;6.50;6.00;;;28.60;50.20;;;;;;4936025;29;20812;-68
2022/08/14 04:26:30;;;;;;;6.57;6.07;;;28.60;50.30;;;;;;4950485;29;20432;-68
2022/08/14 04:29:02;;;;;;;6.07;5.57;;;28.60;50.30;;;;;;4934776;29;20412;-68
2022/08/14 04:31:31;;;;;;;6.23;5.70;;;28.50;50.30;;;;;;4935824;29;20408;-68
2022/08/14 04:34:00;;;;;;;7.37;6.77;;;28.50;50.30;;;;;;4968223;28;20502;-67
2022/08/14 04:36:26;;;;;;;6.20;5.70;;;28.50;50.30;;;;;;4938259;29;20415;-67
2022/08/14 04:44:23;;;;;;;7.00;6.40;;;28.40;50.40;;;;;;4953590;29;20447;-68
2022/08/14 04:49:41;;;;;;;6.03;5.53;;;28.40;50.50;;;;;;4954920;28;20954;-68
2022/08/14 04:52:11;;;;;;;6.70;6.07;;;28.40;50.60;;;;;;4937745;29;20489;-68
2022/08/14 04:54:37;;;;;;;5.97;5.57;;;28.40;50.70;;;;;;4937695;29;20813;-68
2022/08/14 04:57:13;;;;;;;7.30;6.70;;;28.40;50.70;;;;;;4954915;29;20494;-67
2022/08/14 04:59:39;;;;;;;6.70;6.20;;;28.30;50.60;;;;;;4953712;29;20774;-67
2022/08/14 05:02:06;;;;;;;6.27;5.77;;;28.30;50.70;;;;;;4953910;28;20789;-67
2022/08/14 05:04:34;;;;;;;6.80;6.30;;;28.30;50.70;;;;;;4957267;29;20971;-68
2022/08/14 05:07:07;;;;;;;6.70;6.20;;;28.30;50.80;;;;;;4957112;29;20395;-68
2022/08/14 05:09:33;;;;;;;6.97;6.37;;;28.30;50.80;;;;;;4958138;29;20430;-68
2022/08/14 05:12:20;;;;;;;7.00;6.50;;;28.20;50.80;;;;;;4955739;28;20450;-68
2022/08/14 05:14:46;;;;;;;6.43;5.97;;;28.20;50.80;;;;;;4940701;29;20434;-68
2022/08/14 05:17:14;;;;;;;7.03;6.43;;;28.20;51.40;;;;;;4958075;28;20419;-68
2022/08/14 05:19:43;;;;;;;6.70;6.10;;;28.20;50.90;;;;;;4957041;29;20407;-68
2022/08/14 05:22:11;;;;;;;6.83;6.23;;;28.20;50.90;;;;;;4956847;28;20454;-67
2022/08/14 05:24:40;;;;;;;6.97;6.47;;;28.10;50.90;;;;;;4941373;29;20443;-68
2022/08/14 05:27:06;;;;;;;7.10;6.40;;;28.10;51.00;;;;;;4958149;29;20427;-68
2022/08/14 05:29:32;;;;;;;7.60;7.00;;;28.10;51.00;;;;;;4957861;29;20748;-68
2022/08/14 05:32:06;;;;;;;6.67;6.17;;;28.10;51.00;;;;;;4957972;28;20439;-68
2022/08/14 05:34:32;;;;;;;7.40;6.13;;;28.10;51.10;;;;;;4956692;29;20451;-67
2022/08/14 05:37:00;;;;;;;6.63;6.13;;;28.10;51.10;;;;;;4957617;29;20455;-67
2022/08/14 05:39:27;;;;;;;6.90;6.40;;;28.10;51.20;;;;;;4940631;29;20795;-68
2022/08/14 05:41:53;;;;;;;6.00;5.60;;;28.00;51.20;;;;;;4957455;28;20465;-68
2022/08/14 05:44:22;;;;;;;6.87;6.33;;;28.00;51.20;;;;;;4956704;29;20435;-68
2022/08/14 05:46:48;;;;;;;6.90;6.30;;;28.00;51.90;;;;;;4957582;29;20410;-68
2022/08/14 05:49:14;;;;;;;6.83;6.33;;;28.00;51.30;;;;;;4958120;29;20511;-67
2022/08/14 05:51:40;;;;;;;6.83;6.33;;;28.00;51.30;;;;;;4957670;28;20442;-68
2022/08/14 05:54:07;;;;;;;6.53;6.03;;;28.00;51.40;;;;;;4956299;29;20994;-68
2022/08/14 05:56:33;;;;;;;6.27;5.87;;;28.00;51.40;;;;;;4956245;29;20435;-68
2022/08/14 05:59:04;;;;;;;6.90;6.40;;;28.00;51.50;;;;;;4956331;29;20987;-68
2022/08/14 06:01:34;;;;;;;6.27;5.77;;;27.90;51.50;;;;;;4940347;28;20451;-67
2022/08/14 06:04:00;;;;;;;7.70;6.37;;;28.00;51.60;;;;;;4956364;29;20816;-68
2022/08/14 06:06:26;;;;;;;7.30;6.60;;;27.90;51.60;;;;;;4940080;29;20419;-68
2022/08/14 06:08:52;;;;;;;7.10;6.60;;;27.90;51.60;;;;;;4954885;29;20438;-69
2022/08/14 06:11:18;;;;;;;7.10;6.50;;;27.90;51.60;;;;;;4954991;28;20586;-69
2022/08/14 06:13:46;;;;;;;7.23;6.63;;;27.90;51.70;;;;;;4954126;28;20419;-69
2022/08/14 06:16:18;;;;;;;6.93;6.33;;;27.90;51.70;;;;;;4954282;29;20435;-69
2022/08/14 06:18:47;;;;;;;7.80;6.87;;;27.90;51.80;;;;;;4955659;29;20438;-69
2022/08/14 06:21:15;;;;;;;7.17;6.43;;;27.90;51.80;;;;;;4955891;28;20804;-69
2022/08/14 06:23:41;;;;;;;7.87;7.20;;;27.90;51.90;;;;;;4955383;29;20424;-69
2022/08/14 06:26:07;;;;;;;6.33;5.83;;;27.90;51.90;;;;;;4954560;29;20429;-69
2022/08/14 06:28:38;;;;;;;7.10;6.50;;;27.90;52.00;;;;;;4955223;29;20423;-69
2022/08/14 06:31:05;;;;;;;7.53;6.73;;;27.90;52.00;;;;;;4954397;29;20947;-69
2022/08/14 06:33:33;;;;;;;7.17;6.57;;;27.80;52.00;;;;;;4954830;28;20484;-69
2022/08/14 06:35:59;;;;;;;7.03;6.27;;;27.80;52.00;;;;;;4954615;29;20435;-69
2022/08/14 06:38:25;;;;;;;6.47;5.97;;;27.80;52.00;;;;;;4954409;29;20439;-69
2022/08/14 06:40:51;;;;;;;7.10;6.57;;;27.80;52.00;;;;;;4937783;29;20462;-69
2022/08/14 06:43:42;;;;;;;7.67;7.07;;;27.80;52.00;;;;;;4955424;28;20522;-69
2022/08/14 06:46:11;;;;;;;7.30;6.70;;;27.80;52.00;;;;;;4955268;29;20423;-69
2022/08/14 06:48:40;;;;;;;7.37;6.77;;;27.80;52.00;;;;;;4955175;29;20485;-69
2022/08/14 06:51:10;;;;;;;7.00;6.40;;;27.80;52.00;;;;;;4954315;29;20870;-69
2022/08/14 06:53:38;;;;;;;7.57;6.80;;;27.80;52.00;;;;;;4954987;29;20447;-69
2022/08/14 06:56:05;;;;;;;8.03;7.33;;;27.80;52.00;;;;;;4953906;29;20571;-69
2022/08/14 06:58:33;;;;;;;7.03;6.40;;;27.80;52.10;;;;;;4937610;29;20467;-69
2022/08/14 07:06:34;;;;;;;7.20;6.70;;;27.80;52.20;;;;;;4953779;29;20418;-69
2022/08/14 07:09:03;;;;;;;7.97;7.23;;;27.80;52.20;;;;;;4954516;29;20791;-69
2022/08/14 07:11:32;;;;;;;7.27;6.67;;;27.80;52.20;;;;;;4953937;28;20879;-69
2022/08/14 07:13:58;;;;;;;6.87;6.37;;;27.80;52.20;;;;;;4954228;29;20521;-69
2022/08/14 07:16:24;;;;;;;7.30;6.70;;;27.80;52.10;;;;;;4954583;29;20465;-70
2022/08/14 07:18:52;;;;;;;7.17;6.57;;;27.80;52.10;;;;;;4954294;29;20897;-70
2022/08/14 07:21:21;;;;;;;7.03;6.53;;;27.80;52.00;;;;;;4951530;28;20471;-69
2022/08/14 07:24:07;;;;;;;8.30;7.60;;;27.80;52.00;;;;;;4952437;29;20431;-69
2022/08/14 07:26:35;;;;;;;8.10;7.50;;;27.80;52.10;;;;;;4950180;28;20430;-69
2022/08/14 07:29:01;;;;;;;7.23;6.73;;;27.90;52.20;;;;;;4952414;29;20427;-69
2022/08/14 07:31:30;;;;;;;7.53;7.03;;;27.90;52.30;;;;;;4951091;28;20431;-69
2022/08/14 07:33:56;;;;;;;8.10;6.60;;;27.90;52.30;;;;;;4951244;29;20199;-68
2022/08/14 07:36:24;;;;;;;7.50;6.90;;;27.90;52.30;;;;;;4941855;29;20842;-68
2022/08/14 07:39:13;;;;;;;7.60;6.97;;;27.90;52.40;;;;;;4941819;28;20447;-68
2022/08/14 07:41:43;;;;;;;7.33;6.73;;;27.90;52.50;;;;;;4936181;29;20996;-69
2022/08/14 07:44:12;;;;;;;7.63;7.03;;;27.90;52.50;;;;;;4954316;29;20431;-69
2022/08/14 07:46:41;;;;;;;7.77;7.17;;;27.90;52.60;;;;;;4953542;29;20776;-69
2022/08/14 07:49:10;;;;;;;7.93;7.33;;;27.90;52.70;;;;;;4953352;29;20459;-69
2022/08/14 07:51:38;;;;;;;8.33;7.63;;;27.90;52.80;;;;;;4954507;28;20443;-69
2022/08/14 07:54:09;;;;;;;7.40;6.80;;;27.90;52.80;;;;;;4936583;29;20522;-69
2022/08/14 07:56:35;;;;;;;8.33;7.73;;;27.90;52.80;;;;;;4951441;29;20423;-69
2022/08/14 07:59:02;;;;;;;9.43;8.63;;;27.90;52.80;;;;;;4937216;29;20999;-69
2022/08/14 08:01:32;;;;;;;8.47;7.87;;;27.90;52.80;;;;;;4953163;28;20494;-69
2022/08/14 08:04:03;;;;;;;8.40;7.50;;;27.90;52.90;;;;;;4953499;29;20439;-69
2022/08/14 08:06:29;;;;;;;8.23;7.63;;;28.00;53.00;;;;;;4954192;29;20840;-69
2022/08/14 08:08:58;;;;;;;7.70;7.00;;;28.00;53.00;;;;;;4952410;29;20419;-69
2022/08/14 08:11:26;;;;;;;8.30;7.63;;;28.00;53.00;;;;;;4954347;28;20406;-69
2022/08/14 08:13:54;;;;;;;7.20;6.70;;;28.00;53.00;;;;;;4954007;29;20434;-69
2022/08/14 08:16:22;;;;;;;8.13;7.53;;;28.00;52.90;;;;;;4954231;29;20791;-69
2022/08/14 08:18:49;;;;;;;7.90;7.30;;;28.00;53.00;;;;;;4952634;29;20486;-69
2022/08/14 08:21:17;;;;;;;8.07;7.37;;;28.00;52.90;;;;;;4953659;28;20455;-69
2022/08/14 08:23:43;;;;;;;7.30;6.80;;;28.00;53.00;;;;;;4936658;29;20865;-69
2022/08/14 08:26:09;;;;;;;8.77;7.97;;;28.00;53.00;;;;;;4952932;29;20423;-69
2022/08/14 08:28:35;;;;;;;8.30;7.70;;;28.00;53.00;;;;;;4953466;29;20930;-69
2022/08/14 08:31:07;;;;;;;8.07;7.47;;;28.00;53.10;;;;;;4936681;29;20435;-69
2022/08/14 08:33:37;;;;;;;8.43;7.73;;;28.10;53.20;;;;;;4952103;28;20478;-69
2022/08/14 08:36:13;;;;;;;8.47;7.83;;;28.10;53.30;;;;;;4953581;29;20446;-69
2022/08/14 08:38:43;;;;;;;7.50;7.00;;;28.10;53.30;;;;;;4955182;28;20426;-69
2022/08/14 08:41:12;;;;;;;8.50;7.67;;;28.10;53.30;;;;;;4940426;29;20451;-69
2022/08/14 08:43:39;;;;;;;8.37;7.77;;;28.10;53.30;;;;;;4956732;29;20431;-69
2022/08/14 08:46:10;;;;;;;7.93;7.33;;;28.10;53.40;;;;;;4956273;29;20454;-69
2022/08/14 08:48:56;;;;;;;7.60;6.90;;;28.20;53.50;;;;;;4940205;29;20444;-69
2022/08/14 08:51:34;;;;;;;8.97;8.17;;;28.20;53.50;;;;;;4956426;28;20507;-69
2022/08/14 08:54:11;;;;;;;8.80;8.13;;;28.20;53.50;;;;;;4957661;29;20431;-69
2022/08/14 08:56:45;;;;;;;8.43;7.83;;;28.20;53.40;;;;;;4957075;29;20423;-69
2022/08/14 08:59:23;;;;;;;8.80;8.10;;;28.20;53.40;;;;;;4956240;29;20451;-69
2022/08/14 09:02:10;;;;;;;8.70;8.10;;;28.30;53.50;;;;;;4940145;29;20484;-69
2022/08/14 09:04:43;;;;;;;8.17;7.57;;;28.30;53.50;;;;;;4955635;29;20461;-69
2022/08/14 09:07:13;;;;;;;8.30;7.60;;;28.30;53.50;;;;;;4955691;29;20438;-69
2022/08/14 09:09:50;;;;;;;8.60;7.90;;;28.30;53.60;;;;;;4955906;29;20427;-69
2022/08/14 09:12:20;;;;;;;8.40;7.70;;;28.40;53.50;;;;;;4957211;28;20623;-69
2022/08/14 09:14:47;;;;;;;8.50;7.90;;;28.40;53.50;;;;;;4956243;29;20411;-69
2022/08/14 09:17:14;;;;;;;7.97;7.37;;;28.40;53.60;;;;;;4955941;29;20546;-69
2022/08/14 09:19:41;;;;;;;8.50;7.90;;;28.50;53.70;;;;;;4955894;29;20494;-69
2022/08/14 09:22:07;;;;;;;8.30;7.60;;;28.50;53.80;;;;;;4955539;28;20478;-69
2022/08/14 09:24:38;;;;;;;8.10;7.40;;;28.50;53.60;;;;;;4957072;29;20410;-69
2022/08/14 09:27:04;;;;;;;8.07;7.47;;;28.60;53.50;;;;;;4955475;29;20482;-69
2022/08/14 09:29:32;;;;;;;8.40;7.70;;;28.60;53.60;;;;;;4955257;29;20980;-69
2022/08/14 09:32:06;;;;;;;8.30;7.40;;;28.70;53.70;;;;;;4955322;28;20457;-69
2022/08/14 09:34:47;;;;;;;7.23;6.73;;;28.70;53.60;;;;;;4971180;28;20481;-69
2022/08/14 09:37:24;;;;;;;8.20;7.40;;;28.70;53.60;;;;;;4939632;29;20794;-70
2022/08/14 09:40:04;;;;;;;8.07;7.47;;;28.80;53.60;;;;;;4956466;29;20454;-70
2022/08/14 09:43:15;;;;;;;8.07;7.47;;;28.80;53.50;;;;;;4954684;28;20466;-69
2022/08/14 09:45:56;;;;;;;8.10;7.50;;;28.80;53.50;;;;;;4956402;29;20541;-69
2022/08/14 09:48:25;;;;;;;8.20;7.60;;;28.90;53.40;;;;;;4923855;28;20442;-69
2022/08/14 09:50:56;;;;;;;8.40;7.80;;;28.90;53.50;;;;;;4954085;29;20442;-69
2022/08/14 09:53:58;;;;;;;8.40;7.70;;;28.90;53.40;;;;;;4956382;28;20546;-69
2022/08/14 09:56:26;;;;;;;8.17;7.47;;;29.00;53.50;;;;;;4956313;29;20529;-69
2022/08/14 09:58:59;;;;;;;7.90;7.30;;;29.00;53.30;;;;;;4956026;29;20518;-69
2022/08/14 10:01:39;;;;;;;7.80;7.20;;;29.00;53.30;;;;;;4955674;28;20461;-69
2022/08/14 10:04:19;;;;;;;7.87;7.27;;;29.00;53.20;;;;;;4939321;29;20430;-69
2022/08/14 10:06:46;;;;;;;7.97;7.37;;;29.10;53.20;;;;;;4954570;29;20522;-69
2022/08/14 10:09:12;;;;;;;8.60;7.87;;;29.20;53.20;;;;;;4955062;29;20481;-69
2022/08/14 10:11:53;;;;;;;8.07;7.43;;;29.20;53.20;;;;;;4954473;28;20454;-69
2022/08/14 10:14:23;;;;;;;8.67;7.97;;;29.20;53.20;;;;;;4955979;29;20451;-69
2022/08/14 10:16:54;;;;;;;8.17;7.47;;;29.30;53.20;;;;;;4956021;29;20837;-69
2022/08/14 10:19:28;;;;;;;8.17;7.57;;;29.30;53.70;;;;;;4954640;29;20431;-69
2022/08/14 10:22:06;;;;;;;8.40;7.80;;;29.30;53.10;;;;;;4954274;28;20569;-69
2022/08/14 10:24:40;;;;;;;8.93;8.13;;;29.40;53.00;;;;;;4954572;29;20442;-69
2022/08/14 10:27:17;;;;;;;8.60;8.00;;;29.40;52.90;;;;;;4953422;28;20778;-69
2022/08/14 10:30:03;;;;;;;8.60;7.90;;;29.40;52.80;;;;;;4954474;29;20449;-69
2022/08/14 10:32:48;;;;;;;8.57;7.90;;;29.50;52.80;;;;;;4954287;28;20467;-69
2022/08/14 10:35:18;;;;;;;8.10;7.40;;;29.50;52.80;;;;;;4955024;28;20447;-69
2022/08/14 10:37:49;;;;;;;7.40;6.80;;;29.50;52.70;;;;;;4954543;29;20447;-69
2022/08/14 10:40:25;;;;;;;8.33;7.67;;;29.50;52.60;;;;;;4922952;29;20494;-69
2022/08/14 10:42:55;;;;;;;8.60;7.90;;;29.60;52.60;;;;;;4954082;28;20455;-69
2022/08/14 10:45:22;;;;;;;7.77;7.17;;;29.70;52.60;;;;;;4954059;29;20490;-69
2022/08/14 10:47:53;;;;;;;8.23;7.63;;;29.70;52.50;;;;;;4955141;29;20534;-69
2022/08/14 10:50:33;;;;;;;8.10;7.30;;;29.70;52.30;;;;;;4955701;29;20471;-69
2022/08/14 10:53:04;;;;;;;7.70;7.10;;;29.70;52.20;;;;;;4954217;28;20857;-69
2022/08/14 10:55:38;;;;;;;8.20;7.60;;;29.80;52.10;;;;;;4953782;29;20457;-69
2022/08/14 10:58:09;;;;;;;7.80;7.20;;;29.80;52.10;;;;;;4955045;29;20426;-69
2022/08/14 11:01:04;;;;;;;7.40;6.80;;;29.80;52.00;;;;;;4931597;28;20895;-70
2022/08/14 11:03:44;;;;;;;8.17;7.13;;;29.90;51.80;;;;;;4953862;28;20457;-69
2022/08/14 11:06:18;;;;;;;8.00;7.30;;;29.90;51.70;;;;;;4937514;29;20457;-69
2022/08/14 11:08:48;;;;;;;7.63;7.10;;;30.00;51.70;;;;;;4953960;29;20840;-69
2022/08/14 11:11:17;;;;;;;8.10;7.50;;;30.10;51.60;;;;;;4954142;28;20430;-69
2022/08/14 11:13:45;;;;;;;8.13;7.53;;;30.10;51.60;;;;;;4954327;29;20407;-69
2022/08/14 11:16:17;;;;;;;7.67;7.07;;;30.10;51.50;;;;;;4953532;29;20419;-69
2022/08/14 11:18:52;;;;;;;7.97;7.47;;;30.20;51.50;;;;;;4954271;29;20454;-69
2022/08/14 11:21:24;;;;;;;8.10;7.50;;;30.20;51.40;;;;;;4953766;28;20450;-69
2022/08/14 11:23:51;;;;;;;7.90;7.30;;;30.20;51.40;;;;;;4954027;29;20538;-69
2022/08/14 11:26:24;;;;;;;7.63;6.93;;;30.20;51.20;;;;;;4953589;29;20416;-69
2022/08/14 11:28:51;;;;;;;8.30;7.70;;;30.30;51.20;;;;;;4954769;29;20420;-69
2022/08/14 11:31:22;;;;;;;7.80;7.27;;;30.30;51.20;;;;;;4953293;28;20457;-69
2022/08/14 11:33:54;;;;;;;8.27;7.57;;;30.30;51.20;;;;;;4954931;28;20463;-69
2022/08/14 11:36:24;;;;;;;7.43;6.90;;;30.40;51.20;;;;;;4953457;29;20434;-69
2022/08/14 11:38:50;;;;;;;8.50;7.80;;;30.40;51.20;;;;;;4954396;29;20505;-69
2022/08/14 11:41:40;;;;;;;8.33;7.53;;;30.40;51.20;;;;;;4937496;28;20471;-69
2022/08/14 11:44:06;;;;;;;7.87;7.27;;;30.50;51.20;;;;;;4953461;29;20421;-69
2022/08/14 11:46:39;;;;;;;7.60;7.10;;;30.50;51.20;;;;;;4953555;29;20502;-69
2022/08/14 11:49:05;;;;;;;8.13;7.43;;;30.60;51.20;;;;;;4954474;29;20425;-69
2022/08/14 11:51:35;;;;;;;7.73;7.13;;;30.60;51.10;;;;;;4954515;28;20427;-69
2022/08/14 11:54:06;;;;;;;7.87;7.27;;;30.60;51.00;;;;;;4937377;29;20507;-69
2022/08/14 11:56:38;;;;;;;7.03;6.53;;;30.60;51.00;;;;;;4954025;29;20423;-69
2022/08/14 11:59:09;;;;;;;7.53;7.00;;;30.70;50.90;;;;;;4954233;29;20430;-69
2022/08/14 12:01:37;;;;;;;7.40;6.90;;;30.70;50.80;;;;;;4954084;28;20554;-69
2022/08/14 12:04:16;;;;;;;7.30;6.80;;;30.70;50.80;;;;;;4952849;29;20502;-69
2022/08/14 12:06:54;;;;;;;7.83;7.13;;;30.80;50.80;;;;;;4954416;29;20835;-69
2022/08/14 12:09:37;;;;;;;8.07;7.47;;;30.90;50.80;;;;;;4953921;29;20852;-69
2022/08/14 12:12:17;;;;;;;8.00;7.40;;;30.80;50.70;;;;;;4952674;28;20454;-69
2022/08/14 12:14:55;;;;;;;7.10;6.60;;;30.90;50.60;;;;;;4951697;29;20457;-69
2022/08/14 12:17:26;;;;;;;6.63;6.13;;;30.90;50.50;;;;;;4952210;29;20439;-69
2022/08/14 12:20:02;;;;;;;7.73;7.23;;;31.00;50.50;;;;;;4950978;29;20430;-69
2022/08/14 12:22:44;;;;;;;7.43;6.90;;;31.00;50.50;;;;;;4933121;29;20466;-69
2022/08/14 12:25:18;;;;;;;7.23;6.63;;;31.00;50.40;;;;;;4932439;29;20412;-69
2022/08/14 12:27:48;;;;;;;7.57;6.87;;;31.00;50.40;;;;;;4951967;29;20500;-69
2022/08/14 12:30:31;;;;;;;7.60;7.00;;;31.10;50.40;;;;;;4951775;28;20430;-69
2022/08/14 12:33:05;;;;;;;7.90;7.30;;;31.10;50.30;;;;;;4951457;28;20467;-69
2022/08/14 12:35:39;;;;;;;6.40;5.90;;;31.10;50.20;;;;;;4948813;28;20459;-68
2022/08/14 12:38:06;;;;;;;7.27;6.77;;;31.10;50.20;;;;;;4950019;29;20425;-69
2022/08/14 12:40:51;;;;;;;7.13;6.63;;;31.20;50.20;;;;;;4952664;28;20526;-69
2022/08/14 12:43:20;;;;;;;7.37;6.77;;;31.20;50.10;;;;;;4951921;28;20443;-69
2022/08/14 12:45:50;;;;;;;6.73;6.33;;;31.20;50.10;;;;;;4950746;29;20443;-69
2022/08/14 12:48:21;;;;;;;7.63;7.03;;;31.20;50.10;;;;;;4951299;29;20411;-68
2022/08/14 12:50:51;;;;;;;6.90;6.37;;;31.20;50.00;;;;;;4950031;29;20445;-69
2022/08/14 12:53:20;;;;;;;7.40;6.80;;;31.30;50.10;;;;;;4950564;28;20514;-69
2022/08/14 12:56:05;;;;;;;8.10;7.50;;;31.30;50.10;;;;;;4932893;29;20424;-69
2022/08/14 12:58:35;;;;;;;6.90;6.40;;;31.40;50.10;;;;;;4934239;29;20450;-69
2022/08/14 13:01:02;;;;;;;7.23;6.73;;;31.40;50.10;;;;;;4949568;29;20463;-69
2022/08/14 13:03:28;;;;;;;7.40;6.90;;;31.40;50.00;;;;;;4950800;28;20952;-69
2022/08/14 13:05:55;;;;;;;7.00;6.50;;;31.50;50.00;;;;;;4950809;29;20416;-69
2022/08/14 13:08:24;;;;;;;7.00;6.50;;;31.50;50.00;;;;;;4950738;29;20430;-69
2022/08/14 13:10:56;;;;;;;7.33;6.83;;;31.50;49.90;;;;;;4950551;29;20451;-69
2022/08/14 13:13:27;;;;;;;7.00;6.50;;;31.50;50.40;;;;;;4951115;28;20443;-69
2022/08/14 13:15:54;;;;;;;8.20;7.33;;;31.60;49.90;;;;;;4950497;29;20427;-69
2022/08/14 13:18:26;;;;;;;6.27;5.87;;;31.60;49.80;;;;;;4950859;29;20437;-69
2022/08/14 13:20:54;;;;;;;6.90;6.40;;;31.60;49.80;;;;;;4950252;29;20469;-69
2022/08/14 13:23:25;;;;;;;7.43;6.20;;;31.60;49.70;;;;;;4950307;28;20515;-69
2022/08/14 13:25:52;;;;;;;7.47;6.87;;;31.70;49.80;;;;;;4952536;29;20482;-69